createdAt,value
2019-05-26T00:02:15.493Z,4.00
2019-05-26T00:04:44.052Z,3.07
2019-05-26T00:07:12.264Z,2.47
2019-05-26T00:09:40.831Z,4.77
2019-05-26T00:12:09.441Z,2.50
2019-05-26T00:14:38.005Z,3.17
2019-05-26T00:17:06.615Z,3.10
2019-05-26T00:19:35.211Z,2.93
2019-05-26T00:22:03.810Z,5.33
2019-05-26T00:24:32.035Z,7.00
2019-05-26T00:27:00.604Z,7.97
2019-05-26T00:29:29.160Z,4.17
2019-05-26T00:31:57.727Z,3.10
2019-05-26T00:34:26.288Z,3.63
2019-05-26T00:36:54.824Z,3.93
2019-05-26T00:39:23.392Z,4.13
2019-05-26T00:41:52.002Z,3.93
2019-05-26T00:44:20.636Z,6.67
2019-05-26T00:46:49.181Z,8.77
2019-05-26T00:49:17.845Z,4.03
2019-05-26T00:51:46.489Z,2.97
2019-05-26T00:54:15.185Z,2.47
2019-05-26T00:56:43.825Z,3.70
2019-05-26T00:59:12.450Z,4.20
2019-05-26T01:01:40.989Z,3.47
2019-05-26T01:04:09.599Z,3.70
2019-05-26T01:06:38.160Z,4.03
2019-05-26T01:09:08.242Z,2.97
2019-05-26T01:11:36.828Z,3.80
2019-05-26T01:14:05.503Z,7.93
2019-05-26T01:16:34.135Z,14.83
2019-05-26T01:19:02.709Z,4.43
2019-05-26T01:21:31.260Z,3.80
2019-05-26T01:23:59.868Z,4.77
2019-05-26T01:26:28.513Z,3.20
2019-05-26T01:28:57.128Z,2.60
2019-05-26T01:31:25.680Z,3.03
2019-05-26T01:33:54.226Z,2.63
2019-05-26T01:36:23.029Z,1.93
2019-05-26T01:38:51.756Z,2.33
2019-05-26T01:41:20.298Z,2.83
2019-05-26T01:43:48.840Z,4.67
2019-05-26T01:46:17.408Z,3.27
2019-05-26T01:48:45.953Z,3.97
2019-05-26T01:51:14.519Z,4.17
2019-05-26T01:53:43.064Z,3.13
2019-05-26T01:56:11.633Z,4.13
2019-05-26T01:58:40.179Z,3.40
2019-05-26T02:01:08.737Z,3.30
2019-05-26T02:03:37.277Z,3.27
2019-05-26T02:06:05.841Z,3.07
2019-05-26T02:08:39.370Z,3.60
2019-05-26T02:11:04.001Z,5.00
2019-05-26T02:13:32.547Z,5.23
2019-05-26T02:16:01.109Z,6.20
2019-05-26T02:18:29.725Z,5.50
2019-05-26T02:20:58.221Z,3.40
2019-05-26T02:23:26.764Z,7.27
2019-05-26T02:25:55.328Z,2.97
2019-05-26T02:28:23.537Z,3.70
2019-05-26T02:30:52.106Z,4.33
2019-05-26T02:33:20.645Z,3.90
2019-05-26T02:35:49.190Z,3.50
2019-05-26T02:38:17.751Z,3.17
2019-05-26T02:40:48.976Z,3.13
2019-05-26T02:43:17.532Z,7.03
2019-05-26T02:45:46.149Z,3.10
2019-05-26T02:48:14.719Z,3.63
2019-05-26T02:50:43.274Z,2.80
2019-05-26T02:53:11.833Z,6.90
2019-05-26T02:55:40.372Z,8.17
2019-05-26T02:58:08.938Z,3.43
2019-05-26T03:00:44.810Z,3.63
2019-05-26T03:03:15.817Z,5.53
2019-05-26T03:05:45.299Z,10.63
2019-05-26T03:08:15.307Z,10.17
2019-05-26T03:10:43.912Z,9.57
2019-05-26T03:13:14.501Z,8.80
2019-05-26T03:15:45.567Z,6.27
2019-05-26T03:18:14.653Z,15.40
2019-05-26T03:20:44.434Z,15.57
2019-05-26T03:23:14.613Z,15.70
2019-05-26T03:25:43.221Z,5.20
2019-05-26T03:28:11.461Z,19.73
2019-05-26T03:30:40.011Z,28.60
2019-05-26T03:33:08.579Z,17.57
2019-05-26T03:35:37.126Z,13.47
2019-05-26T03:38:05.817Z,12.73
2019-05-26T03:40:34.360Z,3.70
2019-05-26T03:43:02.931Z,3.83
2019-05-26T03:45:42.005Z,4.37
2019-05-26T03:48:10.572Z,3.03
2019-05-26T03:50:39.162Z,3.70
2019-05-26T03:53:07.676Z,8.30
2019-05-26T03:55:36.218Z,4.27
2019-05-26T03:58:04.867Z,4.77
2019-05-26T04:00:33.415Z,11.00
2019-05-26T04:03:01.653Z,4.80
2019-05-26T04:05:30.259Z,4.07
2019-05-26T04:08:03.999Z,5.03
2019-05-26T04:10:29.305Z,9.47
2019-05-26T04:12:57.849Z,4.67
2019-05-26T04:15:26.397Z,4.27
2019-05-26T04:17:55.329Z,4.67
2019-05-26T04:20:23.883Z,6.37
2019-05-26T04:22:52.517Z,5.27
2019-05-26T04:25:21.121Z,4.70
2019-05-26T04:27:49.696Z,4.73
2019-05-26T04:30:18.473Z,4.57
2019-05-26T04:32:47.108Z,4.53
2019-05-26T04:35:15.651Z,4.70
2019-05-26T04:37:44.216Z,3.63
2019-05-26T04:40:26.548Z,2.90
2019-05-26T04:42:42.976Z,3.93
2019-05-26T04:45:11.669Z,3.80
2019-05-26T04:47:40.211Z,7.83
2019-05-26T04:50:09.241Z,5.93
2019-05-26T04:52:37.760Z,3.53
2019-05-26T04:55:07.769Z,4.13
2019-05-26T04:57:36.375Z,4.83
2019-05-26T05:00:06.805Z,6.53
2019-05-26T05:02:35.344Z,7.27
2019-05-26T05:05:06.349Z,5.20
2019-05-26T05:07:34.889Z,4.37
2019-05-26T05:10:04.594Z,4.47
2019-05-26T05:12:33.137Z,6.10
2019-05-26T05:15:01.707Z,7.07
2019-05-26T05:17:30.246Z,4.67
2019-05-26T05:19:58.808Z,4.47
2019-05-26T05:22:27.357Z,12.60
2019-05-26T05:24:55.921Z,9.30
2019-05-26T05:27:24.536Z,4.70
2019-05-26T05:29:53.100Z,5.63
2019-05-26T05:32:21.637Z,7.53
2019-05-26T05:34:50.210Z,8.50
2019-05-26T05:37:18.753Z,10.20
2019-05-26T05:39:47.321Z,12.30
2019-05-26T05:42:15.863Z,9.70
2019-05-26T05:44:44.425Z,6.50
2019-05-26T05:47:12.636Z,8.10
2019-05-26T05:49:41.213Z,7.37
2019-05-26T05:52:09.753Z,9.63
2019-05-26T05:54:38.316Z,9.67
2019-05-26T05:57:06.936Z,10.13
2019-05-26T05:59:35.506Z,7.30
2019-05-26T06:02:04.185Z,4.80
2019-05-26T06:04:32.425Z,4.00
2019-05-26T06:07:00.964Z,4.10
2019-05-26T06:09:29.528Z,6.47
2019-05-26T06:11:58.088Z,3.10
2019-05-26T06:14:26.656Z,5.23
2019-05-26T06:16:55.204Z,4.00
2019-05-26T06:19:23.769Z,6.07
2019-05-26T06:21:52.312Z,7.03
2019-05-26T06:24:20.880Z,7.70
2019-05-26T06:26:49.435Z,4.47
2019-05-26T06:29:17.988Z,7.60
2019-05-26T06:31:46.650Z,10.27
2019-05-26T06:34:15.369Z,7.70
2019-05-26T06:36:43.912Z,4.43
2019-05-26T06:39:12.485Z,3.97
2019-05-26T06:41:41.029Z,2.40
2019-05-26T06:44:09.592Z,5.83
2019-05-26T06:46:38.139Z,7.60
2019-05-26T06:49:06.697Z,4.60
2019-05-26T06:51:35.242Z,3.50
2019-05-26T06:54:03.455Z,4.20
2019-05-26T06:56:32.013Z,5.40
2019-05-26T06:59:02.959Z,4.37
2019-05-26T07:01:30.768Z,3.63
2019-05-26T07:03:59.308Z,4.13
2019-05-26T07:06:27.882Z,3.70
2019-05-26T07:08:56.426Z,5.33
2019-05-26T07:11:24.988Z,4.97
2019-05-26T07:13:53.536Z,4.40
2019-05-26T07:16:36.838Z,6.30
2019-05-26T07:18:52.293Z,10.23
2019-05-26T07:21:20.934Z,11.13
2019-05-26T07:23:49.478Z,13.47
2019-05-26T07:26:18.048Z,11.63
2019-05-26T07:28:46.584Z,10.93
2019-05-26T07:31:15.149Z,10.37
2019-05-26T07:33:43.364Z,12.67
2019-05-26T07:36:11.933Z,9.93
2019-05-26T07:38:40.477Z,9.07
2019-05-26T07:41:09.115Z,8.33
2019-05-26T07:43:37.657Z,9.13
2019-05-26T07:46:06.228Z,7.13
2019-05-26T07:48:36.057Z,10.40
2019-05-26T07:51:04.989Z,8.50
2019-05-26T07:53:33.535Z,7.43
2019-05-26T07:56:02.093Z,7.60
2019-05-26T07:58:30.634Z,7.97
2019-05-26T08:00:59.196Z,8.53
2019-05-26T08:03:27.737Z,8.23
2019-05-26T08:05:57.557Z,7.07
2019-05-26T08:08:26.014Z,8.37
2019-05-26T08:10:54.656Z,8.23
2019-05-26T08:13:23.273Z,6.40
2019-05-26T08:15:51.835Z,7.63
2019-05-26T08:18:20.377Z,6.27
2019-05-26T08:20:49.009Z,7.87
2019-05-26T08:23:17.553Z,5.70
2019-05-26T08:25:46.116Z,5.43
2019-05-26T08:28:14.660Z,7.03
2019-05-26T08:30:43.228Z,10.53
2019-05-26T08:33:11.848Z,11.30
2019-05-26T08:35:40.389Z,7.60
2019-05-26T08:38:08.959Z,6.97
2019-05-26T08:40:37.496Z,6.37
2019-05-26T08:43:06.133Z,5.50
2019-05-26T08:45:34.348Z,5.00
2019-05-26T08:48:02.978Z,5.73
2019-05-26T08:50:34.246Z,6.37
2019-05-26T08:53:01.729Z,6.73
2019-05-26T08:55:30.278Z,5.00
2019-05-26T08:57:58.836Z,6.90
2019-05-26T09:00:27.626Z,2.67
2019-05-26T09:02:56.180Z,3.13
2019-05-26T09:05:24.401Z,3.10
2019-05-26T09:07:53.029Z,1.87
2019-05-26T09:10:21.649Z,2.00
2019-05-26T09:13:00.287Z,1.33
2019-05-26T09:15:20.574Z,4.00
2019-05-26T09:17:49.139Z,1.80
2019-05-26T09:20:18.622Z,1.80
2019-05-26T09:22:47.192Z,4.30
2019-05-26T09:25:16.804Z,1.27
2019-05-26T09:27:45.372Z,6.97
2019-05-26T09:30:14.049Z,1.60
2019-05-26T09:32:42.618Z,1.33
2019-05-26T09:35:11.400Z,1.60
2019-05-26T09:37:39.634Z,3.10
2019-05-26T09:40:08.335Z,1.27
2019-05-26T09:42:36.903Z,1.40
2019-05-26T09:45:10.725Z,1.00
2019-05-26T09:47:39.337Z,1.33
2019-05-26T09:50:08.361Z,4.13
2019-05-26T09:52:37.301Z,3.63
2019-05-26T09:55:07.945Z,1.97
2019-05-26T09:57:36.582Z,1.57
2019-05-26T10:00:06.972Z,2.97
2019-05-26T10:02:35.546Z,1.50
2019-05-26T10:05:05.555Z,1.30
2019-05-26T10:07:34.400Z,0.83
2019-05-26T10:10:04.719Z,1.63
2019-05-26T10:12:33.277Z,1.37
2019-05-26T10:15:01.819Z,1.67
2019-05-26T10:17:30.357Z,3.53
2019-05-26T10:19:58.928Z,2.20
2019-05-26T10:22:27.541Z,1.00
2019-05-26T10:24:56.920Z,1.03
2019-05-26T10:27:25.465Z,1.30
2019-05-26T10:29:54.032Z,1.00
2019-05-26T10:32:22.578Z,1.37
2019-05-26T10:34:51.149Z,1.13
2019-05-26T10:37:19.756Z,1.17
2019-05-26T10:39:48.325Z,0.93
2019-05-26T10:42:16.536Z,2.27
2019-05-26T10:44:45.106Z,1.30
2019-05-26T10:47:13.713Z,2.77
2019-05-26T10:49:42.281Z,1.07
2019-05-26T10:52:10.862Z,1.20
2019-05-26T10:54:39.395Z,1.33
2019-05-26T10:57:07.934Z,1.73
2019-05-26T10:59:36.506Z,5.73
2019-05-26T11:02:05.185Z,1.33
2019-05-26T11:04:33.820Z,4.23
2019-05-26T11:07:02.357Z,1.27
2019-05-26T11:09:30.921Z,1.30
2019-05-26T11:11:59.468Z,1.70
2019-05-26T11:14:28.036Z,0.77
2019-05-26T11:16:56.953Z,0.93
2019-05-26T11:19:25.520Z,1.97
2019-05-26T11:21:54.053Z,0.80
2019-05-26T11:24:22.686Z,1.13
2019-05-26T11:26:51.259Z,0.97
2019-05-26T11:29:19.806Z,1.30
2019-05-26T11:31:48.349Z,0.83
2019-05-26T11:34:16.908Z,0.90
2019-05-26T11:36:45.522Z,1.33
2019-05-26T11:39:14.085Z,0.70
2019-05-26T11:41:42.627Z,0.90
2019-05-26T11:44:17.826Z,1.13
2019-05-26T11:46:41.379Z,1.33
2019-05-26T11:49:09.940Z,1.07
2019-05-26T11:51:38.552Z,0.80
2019-05-26T11:54:07.191Z,0.73
2019-05-26T11:56:35.740Z,1.70
2019-05-26T11:59:04.448Z,0.80
2019-05-26T12:01:32.993Z,2.87
2019-05-26T12:04:01.552Z,1.30
2019-05-26T12:06:30.100Z,0.80
2019-05-26T12:08:58.666Z,1.00
2019-05-26T12:11:27.208Z,1.07
2019-05-26T12:13:55.776Z,0.90
2019-05-26T12:16:24.321Z,1.07
2019-05-26T12:18:52.884Z,0.70
2019-05-26T12:21:21.428Z,0.80
2019-05-26T12:23:54.144Z,1.10
2019-05-26T12:26:20.176Z,5.10
2019-05-26T12:28:48.740Z,0.63
2019-05-26T12:31:17.286Z,1.23
2019-05-26T12:33:45.844Z,0.87
2019-05-26T12:36:14.400Z,3.13
2019-05-26T12:38:51.964Z,0.83
2019-05-26T12:41:21.847Z,1.90
2019-05-26T12:43:50.480Z,0.90
2019-05-26T12:46:19.097Z,1.33
2019-05-26T12:48:47.641Z,0.90
2019-05-26T12:51:16.344Z,0.70
2019-05-26T12:53:44.929Z,0.60
2019-05-26T12:56:13.664Z,0.90
2019-05-26T12:58:42.132Z,0.80
2019-05-26T13:01:10.696Z,1.60
2019-05-26T13:03:39.245Z,0.57
2019-05-26T13:06:07.804Z,1.57
2019-05-26T13:08:36.348Z,0.70
2019-05-26T13:11:05.052Z,0.87
2019-05-26T13:13:33.609Z,1.57
2019-05-26T13:16:02.165Z,0.93
2019-05-26T13:18:30.708Z,1.43
2019-05-26T13:20:59.280Z,1.40
2019-05-26T13:23:27.517Z,1.00
2019-05-26T13:25:56.063Z,0.93
2019-05-26T13:28:24.596Z,3.00
2019-05-26T13:30:53.167Z,0.90
2019-05-26T13:33:21.777Z,0.90
2019-05-26T13:35:50.407Z,0.83
2019-05-26T13:38:18.620Z,2.13
2019-05-26T13:40:47.190Z,1.00
2019-05-26T13:43:15.733Z,1.00
2019-05-26T13:45:44.304Z,1.00
2019-05-26T13:48:12.507Z,8.57
2019-05-26T13:50:41.140Z,1.33
2019-05-26T13:53:09.684Z,1.00
2019-05-26T13:55:38.320Z,3.80
2019-05-26T13:58:06.864Z,1.10
2019-05-26T14:00:35.433Z,1.13
2019-05-26T14:03:04.301Z,1.13
2019-05-26T14:05:32.856Z,2.03
2019-05-26T14:08:01.401Z,1.30
2019-05-26T14:10:32.304Z,1.30
2019-05-26T14:13:00.917Z,1.30
2019-05-26T14:15:38.212Z,0.80
2019-05-26T14:18:00.378Z,1.20
2019-05-26T14:20:42.582Z,0.67
2019-05-26T14:23:11.362Z,1.83
2019-05-26T14:25:40.070Z,3.63
2019-05-26T14:28:08.753Z,3.20
2019-05-26T14:30:37.452Z,1.00
2019-05-26T14:33:06.134Z,0.90
2019-05-26T14:35:34.696Z,1.00
2019-05-26T14:38:03.239Z,3.63
2019-05-26T14:40:31.774Z,1.10
2019-05-26T14:43:00.404Z,2.37
2019-05-26T14:45:29.026Z,0.90
2019-05-26T14:47:57.592Z,0.80
2019-05-26T14:50:27.173Z,1.53
2019-05-26T14:52:55.737Z,0.60
2019-05-26T14:55:24.276Z,0.60
2019-05-26T14:57:52.908Z,0.97
2019-05-26T15:00:23.058Z,1.10
2019-05-26T15:02:51.625Z,1.13
2019-05-26T15:05:20.404Z,0.73
2019-05-26T15:07:48.972Z,1.00
2019-05-26T15:10:17.585Z,1.37
2019-05-26T15:12:46.156Z,1.17
2019-05-26T15:15:15.044Z,1.23
2019-05-26T15:17:43.615Z,0.77
2019-05-26T15:20:12.292Z,1.20
2019-05-26T15:22:40.857Z,0.50
2019-05-26T15:25:09.636Z,1.03
2019-05-26T15:27:38.202Z,1.20
2019-05-26T15:30:08.753Z,2.03
2019-05-26T15:32:37.461Z,1.67
2019-05-26T15:35:09.040Z,2.10
2019-05-26T15:37:37.672Z,1.80
2019-05-26T15:40:07.657Z,5.93
2019-05-26T15:42:36.405Z,1.60
2019-05-26T15:45:07.007Z,4.50
2019-05-26T15:47:35.744Z,2.80
2019-05-26T15:50:05.824Z,2.00
2019-05-26T15:52:34.380Z,3.50
2019-05-26T15:55:03.261Z,1.90
2019-05-26T15:57:31.875Z,1.70
2019-05-26T16:00:00.417Z,3.03
2019-05-26T16:02:29.056Z,1.97
2019-05-26T16:04:59.049Z,2.10
2019-05-26T16:07:27.733Z,2.37
2019-05-26T16:09:56.284Z,5.17
2019-05-26T16:12:24.843Z,3.63
2019-05-26T16:14:53.384Z,3.63
2019-05-26T16:17:21.971Z,6.40
2019-05-26T16:19:50.495Z,1.70
2019-05-26T16:22:19.062Z,3.00
2019-05-26T16:24:47.604Z,1.87
2019-05-26T16:27:19.527Z,2.33
2019-05-26T16:29:46.814Z,2.00
2019-05-26T16:32:18.634Z,6.80
2019-05-26T16:34:45.786Z,2.40
2019-05-26T16:37:14.357Z,2.37
2019-05-26T16:39:42.896Z,1.83
2019-05-26T16:42:11.440Z,2.17
2019-05-26T16:44:40.011Z,2.07
2019-05-26T16:47:08.551Z,2.23
2019-05-26T16:49:37.117Z,3.03
2019-05-26T16:52:06.244Z,1.97
2019-05-26T16:54:35.057Z,2.20
2019-05-26T16:57:03.670Z,1.80
2019-05-26T16:59:32.241Z,2.83
2019-05-26T17:02:00.774Z,1.60
2019-05-26T17:04:29.336Z,3.07
2019-05-26T17:06:57.880Z,3.20
2019-05-26T17:09:26.448Z,1.77
2019-05-26T17:11:54.995Z,3.80
2019-05-26T17:14:23.557Z,3.40
2019-05-26T17:16:52.101Z,2.30
2019-05-26T17:19:20.660Z,2.23
2019-05-26T17:21:49.204Z,3.10
2019-05-26T17:24:17.773Z,2.83
2019-05-26T17:26:46.317Z,4.20
2019-05-26T17:29:14.887Z,2.30
2019-05-26T17:31:43.424Z,4.40
2019-05-26T17:34:11.992Z,2.63
2019-05-26T17:36:40.208Z,3.77
2019-05-26T17:39:09.253Z,1.80
2019-05-26T17:41:37.885Z,2.17
2019-05-26T17:44:06.810Z,2.97
2019-05-26T17:46:35.352Z,2.20
2019-05-26T17:49:03.991Z,3.53
2019-05-26T17:51:32.705Z,4.07
2019-05-26T17:54:01.286Z,2.27
2019-05-26T17:56:29.813Z,2.50
2019-05-26T17:58:58.376Z,2.13
2019-05-26T18:01:26.924Z,2.30
2019-05-26T18:03:55.484Z,3.37
2019-05-26T18:06:24.030Z,2.23
2019-05-26T18:08:52.596Z,3.73
2019-05-26T18:11:20.801Z,6.77
2019-05-26T18:13:49.380Z,3.70
2019-05-26T18:16:17.990Z,2.20
2019-05-26T18:18:46.683Z,3.00
2019-05-26T18:21:15.228Z,1.30
2019-05-26T18:23:43.795Z,5.70
2019-05-26T18:26:12.342Z,1.30
2019-05-26T18:28:40.576Z,1.33
2019-05-26T18:31:09.118Z,0.83
2019-05-26T18:33:37.681Z,1.27
2019-05-26T18:36:06.221Z,1.40
2019-05-26T18:38:34.765Z,1.10
2019-05-26T18:41:03.328Z,1.10
2019-05-26T18:43:31.875Z,1.20
2019-05-26T18:46:00.445Z,1.13
2019-05-26T18:48:28.982Z,1.23
2019-05-26T18:50:57.545Z,1.03
2019-05-26T18:53:29.528Z,1.93
2019-05-26T18:55:56.301Z,4.57
2019-05-26T18:58:24.913Z,4.20
2019-05-26T19:00:53.552Z,3.50
2019-05-26T19:03:22.096Z,5.13
2019-05-26T19:05:50.666Z,6.57
2019-05-26T19:08:19.204Z,3.83
2019-05-26T19:10:47.840Z,2.63
2019-05-26T19:13:16.380Z,3.03
2019-05-26T19:15:45.091Z,2.43
2019-05-26T19:18:20.068Z,2.00
2019-05-26T19:20:44.080Z,2.03
2019-05-26T19:23:12.695Z,2.63
2019-05-26T19:25:41.261Z,1.97
2019-05-26T19:28:09.809Z,1.70
2019-05-26T19:30:38.369Z,2.83
2019-05-26T19:33:07.049Z,5.53
2019-05-26T19:35:35.683Z,1.60
2019-05-26T19:38:04.417Z,1.63
2019-05-26T19:40:32.930Z,2.13
2019-05-26T19:43:01.473Z,1.80
2019-05-26T19:45:30.109Z,1.70
2019-05-26T19:47:58.648Z,2.33
2019-05-26T19:50:27.212Z,2.73
2019-05-26T19:52:55.766Z,1.90
2019-05-26T19:55:24.324Z,1.97
2019-05-26T19:57:52.956Z,2.17
2019-05-26T20:00:22.025Z,2.27
2019-05-26T20:02:50.572Z,1.90
2019-05-26T20:05:19.700Z,2.17
2019-05-26T20:07:48.313Z,2.10
2019-05-26T20:10:17.108Z,2.23
2019-05-26T20:12:45.732Z,2.23
2019-05-26T20:15:14.716Z,2.27
2019-05-26T20:17:43.353Z,2.17
2019-05-26T20:20:12.932Z,4.47
2019-05-26T20:22:41.502Z,2.33
2019-05-26T20:25:10.781Z,2.00
2019-05-26T20:27:39.346Z,2.20
2019-05-26T20:30:09.483Z,2.43
2019-05-26T20:32:38.060Z,2.00
2019-05-26T20:35:08.510Z,1.67
2019-05-26T20:37:37.080Z,5.50
2019-05-26T20:40:07.436Z,2.67
2019-05-26T20:42:36.010Z,2.07
2019-05-26T20:45:09.168Z,2.03
2019-05-26T20:47:37.806Z,2.93
2019-05-26T20:50:07.282Z,2.17
2019-05-26T20:52:35.515Z,3.70
2019-05-26T20:55:06.388Z,2.43
2019-05-26T20:57:35.093Z,2.83
2019-05-26T21:00:08.322Z,3.03
2019-05-26T21:02:37.516Z,2.33
2019-05-26T21:05:08.267Z,2.63
2019-05-26T21:07:36.836Z,2.67
2019-05-26T21:10:08.635Z,2.57
2019-05-26T21:12:37.200Z,1.80
2019-05-26T21:15:06.387Z,3.00
2019-05-26T21:17:34.953Z,2.80
2019-05-26T21:20:07.509Z,3.67
2019-05-26T21:22:36.149Z,3.47
2019-05-26T21:25:06.224Z,3.83
2019-05-26T21:27:34.798Z,3.10
2019-05-26T21:30:04.940Z,3.30
2019-05-26T21:32:33.513Z,3.90
2019-05-26T21:35:02.054Z,8.33
2019-05-26T21:37:30.616Z,3.23
2019-05-26T21:39:59.157Z,3.83
2019-05-26T21:42:27.721Z,4.93
2019-05-26T21:44:55.928Z,2.87
2019-05-26T21:47:24.492Z,3.47
2019-05-26T21:49:53.105Z,4.60
2019-05-26T21:52:21.670Z,3.33
2019-05-26T21:54:50.213Z,3.47
2019-05-26T21:57:18.780Z,3.83
2019-05-26T21:59:47.324Z,3.00
2019-05-26T22:02:15.560Z,3.80
2019-05-26T22:04:44.100Z,2.97
2019-05-26T22:07:12.668Z,3.30
2019-05-26T22:09:41.207Z,4.27
2019-05-26T22:12:09.776Z,3.37
2019-05-26T22:14:38.320Z,4.73
2019-05-26T22:17:06.932Z,4.93
2019-05-26T22:19:35.501Z,4.60
2019-05-26T22:22:04.148Z,3.30
2019-05-26T22:24:32.676Z,4.10
2019-05-26T22:27:01.229Z,4.13
2019-05-26T22:29:29.472Z,4.83
2019-05-26T22:31:58.021Z,10.23
2019-05-26T22:34:26.580Z,7.00
2019-05-26T22:36:55.120Z,4.93
2019-05-26T22:39:23.686Z,2.37
2019-05-26T22:41:52.225Z,2.47
2019-05-26T22:44:20.788Z,2.60
2019-05-26T22:46:49.336Z,2.37
2019-05-26T22:49:17.901Z,2.93
2019-05-26T22:51:46.121Z,7.33
2019-05-26T22:54:14.751Z,4.07
2019-05-26T22:56:43.297Z,3.83
2019-05-26T22:59:11.864Z,3.43
2019-05-26T23:01:40.409Z,2.53
2019-05-26T23:04:08.980Z,2.70
2019-05-26T23:06:37.521Z,2.57
2019-05-26T23:09:06.132Z,3.90
2019-05-26T23:11:34.738Z,4.40
2019-05-26T23:14:03.303Z,2.70
2019-05-26T23:16:31.908Z,3.83
2019-05-26T23:19:00.476Z,2.87
2019-05-26T23:21:29.089Z,3.10
2019-05-26T23:23:57.652Z,4.53
2019-05-26T23:26:25.884Z,3.60
2019-05-26T23:28:54.449Z,3.97
2019-05-26T23:31:22.997Z,2.80
2019-05-26T23:33:51.562Z,3.60
2019-05-26T23:36:20.108Z,4.30
2019-05-26T23:38:48.675Z,5.27
2019-05-26T23:41:17.208Z,5.10
2019-05-26T23:43:45.778Z,4.97
2019-05-26T23:46:14.353Z,3.93
2019-05-26T23:48:42.884Z,4.47
2019-05-26T23:51:11.432Z,3.73
2019-05-26T23:53:40.001Z,5.30
2019-05-26T23:56:08.544Z,5.13
2019-05-26T23:58:36.775Z,5.17
